Latest Weather Observations for Naracoorte

IDS60801

Issued at 10:31 am CST Saturday 1 October 2016 (issued every 30 minutes, with the page automatically refreshed every 10 minutes)

About weather observations | Map of weather stations | Latest weather observations for SA | Other Formats
Station Details ID: 026099 Name: NARACOORTE AERODROME Lat: -36.98 Lon: 140.73 Height: 49.72 m
Data from the previous 72 hours. | See also: Recent months at Naracoorte
Date/Time
CST
Temp
°C
App
Temp
°C
Dew
Point
°C
Rel
Hum
%
Delta-T
°C
Wind Press
QNH
hPa
Press
MSL
hPa
Rain since
9am
mm
Dir  Spd
km/h
Gust
km/h
Spd
kts
Gust
kts
01/10:30am 12.4 7.0 6.5 67 2.8 WNW 24 30 13 16 1006.2 1006.2 0.0
01/10:00am 12.0 6.2 8.1 77 1.9 WNW 28 32 15 17 1006.3 1006.3 0.0
01/09:30am 12.7 7.7 9.5 81 1.6 WNW 26 32 14 17 1006.4 1006.4 0.0
01/09:00am 11.7 6.4 8.6 81 1.5 WNW 26 32 14 17 1006.2 1006.2 4.6
01/08:30am 11.5 7.0 8.7 83 1.4 W 22 28 12 15 1006.1 1006.1 4.6
01/08:00am 11.2 7.7 8.9 86 1.1 WNW 17 22 9 12 1006.2 1006.2 4.6
01/07:30am 10.3 6.9 9.1 92 0.6 WNW 17 22 9 12 1006.2 1006.2 4.6
01/07:00am 10.1 7.0 8.7 91 0.7 WNW 15 19 8 10 1005.7 1005.7 4.6
01/06:30am 9.8 6.3 8.6 92 0.6 WNW 17 20 9 11 1005.5 1005.5 4.6
01/06:00am 9.7 6.9 8.5 92 0.6 WNW 13 17 7 9 1005.2 1005.2 4.6
01/05:30am 9.6 6.0 8.5 93 0.5 WNW 17 20 9 11 1004.8 1004.8 4.6
01/05:00am 9.5 5.6 8.6 94 0.4 W 19 24 10 13 1004.5 1004.5 4.6
01/04:30am 9.5 6.3 8.6 94 0.4 W 15 19 8 10 1004.3 1004.3 4.6
01/04:00am 9.4 5.9 8.6 95 0.4 W 17 20 9 11 1004.0 1004.0 4.6
01/03:30am 9.4 4.1 8.5 94 0.4 W 26 32 14 17 1003.8 1003.8 4.6
01/03:00am 9.6 5.1 8.7 94 0.4 W 22 32 12 17 1003.6 1003.6 4.6
01/02:30am 9.8 4.6 8.7 93 0.5 W 26 32 14 17 1003.5 1003.5 4.6
01/02:00am 9.9 3.3 8.7 92 0.6 W 33 43 18 23 1003.3 1003.3 4.6
01/01:30am 10.0 4.1 9.1 94 0.4 W 30 43 16 23 1002.9 1002.9 4.6
01/01:00am 9.9 4.4 9.1 95 0.4 W 28 39 15 21 1002.7 1002.7 4.6
01/12:30am 10.3 5.3 9.5 95 0.4 W 26 35 14 19 1002.6 1002.6 4.4
01/12:00am 10.5 5.2 9.7 95 0.4 W 28 35 15 19 1002.4 1002.4 4.4
 
Date/Time
CST
Temp
°C
App
Temp
°C
Dew
Point
°C
Rel
Hum
%
Delta-T
°C
Wind Press
QNH
hPa
Press
MSL
hPa
Rain since
9am
mm
Dir  Spd
km/h
Gust
km/h
Spd
kts
Gust
kts
30/11:30pm 10.6 5.3 9.7 94 0.5 W 28 37 15 20 1002.2 1002.2 4.4
30/11:00pm 10.7 5.4 9.8 94 0.5 W 28 37 15 20 1002.1 1002.1 4.4
30/10:30pm 10.8 5.9 10.0 95 0.4 W 26 32 14 17 1002.1 1002.1 4.4
30/10:00pm 10.9 6.0 10.0 94 0.5 W 26 35 14 19 1001.9 1001.9 4.2
30/09:30pm 10.8 4.7 9.9 94 0.5 WSW 32 43 17 23 1001.8 1001.8 4.2
30/09:00pm 11.0 5.0 10.1 94 0.5 W 32 41 17 22 1001.7 1001.7 4.0
30/08:30pm 11.1 5.9 10.3 95 0.4 W 28 41 15 22 1001.6 1001.6 4.0
30/08:00pm 11.3 5.4 10.4 94 0.5 W 32 44 17 24 1001.3 1001.3 4.0
30/07:30pm 11.6 6.1 10.5 93 0.6 WSW 30 39 16 21 1001.0 1001.0 4.0
30/07:00pm 11.8 5.9 10.5 92 0.7 WSW 32 39 17 21 1000.5 1000.5 4.0
30/06:30pm 11.7 5.6 10.6 93 0.6 WSW 33 43 18 23 1000.0 1000.0 4.0
30/06:00pm 11.6 5.6 10.8 95 0.4 WSW 33 43 18 23 999.6 999.6 4.0
30/05:30pm 11.9 6.0 11.1 95 0.4 WSW 33 46 18 25 999.1 999.1 3.8
30/05:00pm 12.2 6.3 11.3 94 0.5 WSW 33 43 18 23 998.8 998.8 3.8
30/04:30pm 12.2 5.9 11.1 93 0.6 WSW 35 44 19 24 998.2 998.2 3.8
30/04:00pm 12.9 6.0 11.6 92 0.7 WSW 39 50 21 27 997.8 997.8 3.8
30/03:30pm 12.9 6.8 11.8 93 0.6 WSW 35 44 19 24 997.5 997.5 3.6
30/03:00pm 12.6 5.7 11.5 93 0.6 WSW 39 46 21 25 997.5 997.5 3.6
30/02:30pm 13.2 5.7 12.1 93 0.6 WSW 43 52 23 28 997.0 997.0 3.6
30/02:00pm 13.1 6.3 12.0 93 0.6 WSW 39 54 21 29 996.7 996.7 3.6
30/01:40pm 13.0 5.4 11.7 92 0.7 WSW 43 61 23 33 996.3 996.3 3.6
30/01:30pm 13.0 5.4 11.9 93 0.6 WSW 43 54 23 29 996.3 996.3 3.6
30/01:00pm 13.3 6.6 12.2 93 0.6 SW 39 52 21 28 995.8 995.8 3.0
30/12:30pm 13.7 7.0 12.4 92 0.7 WSW 39 56 21 30 995.3 995.3 2.8
30/12:00pm 13.5 6.8 12.2 92 0.7 WSW 39 56 21 30 994.8 994.8 2.8
30/11:32am 13.3 6.9 12.0 92 0.7 WSW 37 56 20 30 994.8 994.8 2.6
30/11:30am 13.5 6.4 12.2 92 0.7 WSW 41 56 22 30 994.7 994.7 2.6
30/11:00am 12.6 5.3 11.7 94 0.5 WSW 41 50 22 27 994.2 994.2 2.6
30/10:30am 12.2 6.0 11.4 95 0.4 WSW 35 43 19 23 993.9 993.9 2.2
30/10:00am 12.1 5.5 11.5 96 0.3 WSW 37 46 20 25 993.6 993.6 1.6
30/09:30am 11.6 5.9 11.0 96 0.3 W 32 44 17 24 993.5 993.5 1.2
30/09:27am 11.5 6.1 11.0 97 0.3 W 30 44 16 24 993.4 993.4 1.2
30/09:00am 9.9 6.5 9.3 96 0.3 NNW 17 26 9 14 993.7 993.7 9.4
30/08:30am 9.3 6.2 8.7 96 0.3 NNW 15 24 8 13 994.0 994.0 7.8
30/08:00am 9.1 6.3 8.5 96 0.3 N 13 17 7 9 994.1 994.1 6.8
30/07:30am 8.9 6.0 8.1 95 0.4 NNW 13 17 7 9 994.6 994.6 5.8
30/07:00am 8.9 6.4 8.1 95 0.4 NW 11 17 6 9 994.6 994.6 5.6
30/06:30am 8.5 5.9 7.7 95 0.4 WNW 11 15 6 8 994.6 994.6 4.6
30/06:00am 8.3 4.9 7.5 95 0.4 W 15 17 8 9 994.4 994.4 4.2
30/05:30am 7.9 4.0 7.1 95 0.4 W 17 20 9 11 993.9 993.9 4.2
30/05:00am 6.9 3.6 6.3 96 0.3 W 13 17 7 9 993.6 993.6 4.2
30/04:30am 6.7 3.0 6.1 96 0.3 WNW 15 17 8 9 993.2 993.2 4.2
30/04:00am 5.7 2.1 5.1 96 0.3 W 13 15 7 8 993.1 993.1 4.2
30/03:30am 5.5 1.5 4.9 96 0.3 W 15 19 8 10 992.9 992.9 4.2
30/03:00am 5.9 2.0 5.3 96 0.3 WSW 15 17 8 9 992.5 992.5 4.0
30/02:30am 6.1 2.2 5.5 96 0.3 WSW 15 19 8 10 992.3 992.3 4.0
30/02:00am 5.9 2.4 5.3 96 0.3 WSW 13 15 7 8 991.8 991.8 4.0
30/01:30am 5.8 2.2 5.1 95 0.3 SW 13 15 7 8 991.7 991.7 4.0
30/01:00am 6.7 3.3 6.0 95 0.3 SW 13 17 7 9 991.5 991.5 4.0
30/12:30am 6.6 3.2 6.0 96 0.3 SW 13 15 7 8 991.3 991.3 4.0
30/12:00am 6.0 3.6 5.4 96 0.3 SSW 7 9 4 5 991.1 991.1 4.0
 
Date/Time
CST
Temp
°C
App
Temp
°C
Dew
Point
°C
Rel
Hum
%
Delta-T
°C
Wind Press
QNH
hPa
Press
MSL
hPa
Rain since
9am
mm
Dir  Spd
km/h
Gust
km/h
Spd
kts
Gust
kts
29/11:30pm 5.8 3.0 5.2 96 0.3 SSW 9 15 5 8 990.9 990.9 4.0
29/11:00pm 5.3 2.4 4.7 96 0.3 SSE 9 11 5 6 990.5 990.5 4.0
29/10:30pm 5.7 2.1 5.1 96 0.3 SSE 13 13 7 7 990.1 990.1 4.0
29/10:00pm 5.8 3.3 4.9 94 0.4 S 7 9 4 5 989.9 989.9 4.0
29/09:30pm 7.2 5.0 6.3 94 0.4 S 7 9 4 5 989.6 989.6 4.0
29/09:00pm 7.3 4.7 6.2 93 0.5 S 9 9 5 5 989.4 989.4 4.0
29/08:30pm 8.6 6.7 7.4 92 0.6 SSE 7 7 4 4 989.1 989.1 4.0
29/08:00pm 9.2 7.6 7.8 91 0.7 S 6 6 3 3 988.9 988.9 4.0
29/07:30pm 9.4 5.8 8.2 92 0.6 S 17 22 9 12 988.4 988.4 3.2
29/07:00pm 9.3 6.9 7.1 86 1.0 S 9 15 5 8 987.7 987.7 2.4
29/06:30pm 9.9 9.3 7.2 83 1.3 CALM 0 0 0 0 987.1 987.1 1.4
29/06:00pm 10.4 9.5 7.6 83 1.4 E 2 6 1 3 986.6 986.6 1.4
29/05:30pm 11.2 9.3 7.5 78 1.8 SE 7 11 4 6 986.2 986.2 1.4
29/05:00pm 11.5 10.6 6.2 70 2.5 CALM 0 0 0 0 985.6 985.6 1.4
29/04:30pm 12.1 11.4 7.0 71 2.5 CALM 0 0 0 0 985.1 985.1 1.4
29/04:00pm 11.3 9.4 7.4 77 1.9 ESE 7 11 4 6 985.0 985.0 1.4
29/03:30pm 11.8 9.2 7.7 76 2.0 E 11 22 6 12 984.4 984.4 1.4
29/03:00pm 11.3 10.0 7.6 78 1.8 ESE 4 7 2 4 984.1 984.1 1.4
29/02:30pm 12.1 9.7 7.2 72 2.4 N 9 13 5 7 984.2 984.2 1.2
29/02:00pm 12.1 8.5 8.2 77 1.9 ENE 17 24 9 13 984.1 984.1 1.2
29/01:30pm 11.4 7.4 8.3 81 1.5 ENE 19 30 10 16 983.9 983.9 1.0
29/01:00pm 11.9 6.5 8.2 78 1.8 NE 26 33 14 18 984.1 984.1 1.0
29/12:30pm 11.2 5.6 7.1 76 2.0 NE 26 33 14 18 984.4 984.4 1.0
29/12:00pm 10.8 5.8 7.9 82 1.4 NNE 24 37 13 20 984.5 984.5 1.0
29/11:30am 11.0 5.9 7.7 80 1.6 NNE 24 37 13 20 984.7 984.7 0.0
29/11:00am 10.0 4.1 7.4 84 1.2 NNE 28 39 15 21 984.7 984.7 0.0
29/10:30am 10.1 4.4 6.6 79 1.7 NNE 26 35 14 19 984.7 984.7 0.0
29/10:00am 10.4 5.0 6.4 76 1.9 NNE 24 32 13 17 984.7 984.7 0.0
29/09:30am 10.0 4.6 6.3 78 1.7 NNE 24 33 13 18 984.8 984.8 0.0
29/09:00am 9.3 4.3 6.4 82 1.4 NNE 22 32 12 17 985.0 985.0 9.8
29/08:30am 8.6 3.1 6.1 84 1.2 NNE 24 35 13 19 985.1 985.1 9.8
29/08:00am 8.1 1.7 5.2 82 1.3 NNE 28 37 15 20 985.2 985.2 9.8
29/07:30am 8.0 2.0 5.3 83 1.2 NNE 26 33 14 18 985.4 985.4 9.8
29/07:00am 7.6 2.7 5.2 85 1.1 NNE 20 30 11 16 985.2 985.2 9.8
29/06:30am 7.1 2.1 4.6 84 1.1 NNE 20 32 11 17 985.5 985.5 9.8
29/06:00am 6.8 2.0 4.5 85 1.0 N 19 30 10 16 985.4 985.4 9.8
29/05:30am 7.1 2.3 4.8 85 1.0 N 19 28 10 15 985.4 985.4 9.8
29/05:00am 7.4 2.7 5.2 86 1.0 N 19 26 10 14 985.7 985.7 9.8
29/04:30am 7.8 3.6 5.8 87 0.9 N 17 28 9 15 985.7 985.7 9.8
29/04:00am 8.2 3.5 6.2 87 0.9 N 20 33 11 18 985.6 985.6 9.8
29/03:30am 8.4 4.0 6.7 89 0.8 N 19 24 10 13 985.7 985.7 9.8
29/03:00am 8.6 5.1 7.4 92 0.6 NNW 15 20 8 11 985.7 985.7 9.8
29/02:30am 8.9 4.5 7.5 91 0.7 NW 20 28 11 15 985.9 985.9 9.8
29/02:00am 8.6 5.2 7.5 93 0.5 NNW 15 19 8 10 986.2 986.2 9.0
29/01:30am 9.1 4.9 7.4 89 0.8 NW 19 26 10 14 986.5 986.5 9.0
29/01:00am 9.7 3.9 8.0 89 0.8 WNW 28 43 15 23 986.8 986.8 9.0
29/12:30am 10.3 4.8 9.1 92 0.6 NW 28 41 15 22 987.0 987.0 7.8
29/12:11am 10.5 5.1 9.4 93 0.6 NNW 28 50 15 27 986.9 986.9 7.6
29/12:00am 10.9 6.6 9.3 90 0.8 NNW 22 32 12 17 986.9 986.9 7.4
 
Date/Time
CST
Temp
°C
App
Temp
°C
Dew
Point
°C
Rel
Hum
%
Delta-T
°C
Wind Press
QNH
hPa
Press
MSL
hPa
Rain since
9am
mm
Dir  Spd
km/h
Gust
km/h
Spd
kts
Gust
kts
28/11:30pm 11.4 6.4 9.5 88 1.0 NW 26 39 14 21 986.7 986.7 7.4
28/11:00pm 11.9 6.7 10.3 90 0.8 NW 28 35 15 19 986.4 986.4 7.4
28/10:30pm 12.2 6.9 11.1 93 0.6 N 30 43 16 23 985.9 985.9 7.2
28/10:00pm 12.6 7.5 10.7 88 1.0 NNE 28 39 15 21 986.2 986.2 6.6
28/09:31pm 12.6 5.8 10.7 88 1.0 NE 37 56 20 30 986.3 986.3 6.6
28/09:30pm 12.7 5.6 10.8 88 1.0 NE 39 56 21 30 986.3 986.3 6.6
28/09:07pm 12.8 6.4 10.7 87 1.1 NE 35 54 19 29 987.1 987.1 5.8
28/09:00pm 12.7 5.5 10.6 87 1.1 NE 39 54 21 29 986.7 986.7 5.8
28/08:30pm 12.5 3.2 10.6 88 1.0 NE 50 69 27 37 986.9 986.9 5.8
28/08:18pm 12.4 2.0 10.6 89 0.9 NE 56 78 30 42 987.2 987.2 5.8
28/08:13pm 12.2 0.8 10.6 90 0.8 ENE 61 87 33 47 986.1 986.1 5.8
28/08:00pm 12.3 -0.2 10.7 90 0.8 NE 67 95 36 51 986.1 986.1 5.8
28/07:58pm 12.4 0.7 10.8 90 0.8 NE 63 95 34 51 986.3 986.3 5.8
28/07:56pm 12.3 1.7 10.7 90 0.8 NE 57 91 31 49 986.1 986.1 5.6
28/07:52pm 12.2 2.5 10.4 89 0.9 NE 52 74 28 40 986.7 986.7 5.4
28/07:30pm 12.2 4.2 10.4 89 0.9 NE 43 65 23 35 989.2 989.2 5.2
28/07:09pm 12.5 5.7 10.6 88 1.0 NE 37 59 20 32 990.5 990.5 4.4
28/07:00pm 12.5 6.0 10.4 87 1.1 NE 35 46 19 25 990.6 990.6 3.4
28/06:30pm 12.4 5.5 10.3 87 1.1 NE 37 56 20 30 990.7 990.7 1.2
28/06:05pm 12.6 5.9 9.8 83 1.4 NE 35 59 19 32 990.7 990.7 1.0
28/06:00pm 12.4 5.7 9.8 84 1.3 NE 35 48 19 26 991.0 991.0 1.0
28/05:30pm 12.0 5.9 9.9 87 1.1 NE 32 43 17 23 992.3 992.3 1.0
28/05:00pm 12.1 6.8 9.8 86 1.2 NE 28 35 15 19 993.4 993.4 0.8
28/04:30pm 12.4 7.1 9.8 84 1.3 N 28 37 15 20 994.4 994.4 0.4
28/04:00pm 13.4 6.5 8.9 74 2.3 N 35 52 19 28 994.9 994.9 0.0
28/03:30pm 16.7 9.2 6.2 50 5.2 N 35 59 19 32 996.3 996.3 0.0
28/03:26pm 17.1 10.2 6.6 50 5.2 N 32 56 17 30 996.2 996.2 0.0
28/03:00pm 17.0 10.9 6.8 51 5.1 NNE 28 41 15 22 996.2 996.2 0.0
28/02:30pm 17.0 10.9 6.8 51 5.1 NNE 28 37 15 20 997.6 997.6 0.0
28/02:00pm 17.2 10.5 7.5 53 4.9 NNE 32 46 17 25 997.9 997.9 0.0
28/01:30pm 17.4 10.5 7.2 51 5.1 NNE 33 46 18 25 998.9 998.9 0.0
28/01:00pm 17.3 10.4 7.4 52 5.0 NNE 33 48 18 26 999.4 999.4 0.0
28/12:30pm 17.2 9.7 7.8 54 4.8 NNE 37 57 20 31 999.8 999.8 0.0
28/12:23pm 17.3 9.9 8.2 55 4.6 NNE 37 56 20 30 999.9 999.9 0.0
28/12:00pm 17.2 10.1 8.1 55 4.7 NNE 35 46 19 25 1000.6 1000.6 0.0
28/11:30am 17.0 9.6 8.2 56 4.5 NNE 37 52 20 28 1001.9 1001.9 0.0
28/11:19am 16.9 10.1 7.0 52 4.9 NNE 32 50 17 27 1002.6 1002.6 0.0
28/11:00am 17.3 10.5 7.9 54 4.8 NNE 33 48 18 26 1003.4 1003.4 0.0

Other Formats:

Comma delimited format used in spreadsheet applications
http://www.bom.gov.au/fwo/IDS60801/IDS60801.94820.axf

JavaScript Object Notation format (JSON) in row-major order
http://www.bom.gov.au/fwo/IDS60801/IDS60801.94820.json